Time;durP1;ratioP1;P1;durP2;ratioP2;P2;SDS_P1;SDS_P2;PMS_P1;PMS_P2;Temp;Humidity;BMP_temperature;BMP_pressure;BME280_temperature;BME280_humidity;BME280_pressure;Samples;Min_cycle;Max_cycle;Signal;HPM_P1;HPM_P2
2022/11/05 00:10:27;;;;;;;36.97;21.90;;;8.40;99.90;;;;;;5096833;28;20196;-68
2022/11/05 00:18:23;;;;;;;30.07;19.67;;;8.30;99.90;;;;;;5096602;28;20168;-68
2022/11/05 00:20:49;;;;;;;31.53;19.90;;;8.30;99.90;;;;;;5096262;28;20208;-68
2022/11/05 00:26:10;;;;;;;30.87;19.47;;;8.20;99.90;;;;;;5096287;28;20284;-68
2022/11/05 00:28:37;;;;;;;36.13;20.77;;;8.20;99.90;;;;;;5094735;28;20519;-68
2022/11/05 00:31:12;;;;;;;34.93;19.90;;;8.20;99.90;;;;;;5094563;28;20266;-67
2022/11/05 00:33:39;;;;;;;29.20;21.07;;;8.20;99.90;;;;;;5094654;28;20169;-67
2022/11/05 00:36:07;;;;;;;28.77;18.97;;;8.10;99.90;;;;;;5095685;28;20657;-68
2022/11/05 00:38:33;;;;;;;36.47;20.43;;;8.10;99.90;;;;;;5095719;28;20638;-68
2022/11/05 00:40:58;;;;;;;31.87;20.10;;;8.00;99.90;;;;;;5095604;28;20223;-68
2022/11/05 00:46:09;;;;;;;35.37;21.50;;;8.00;99.90;;;;;;5095730;28;20634;-67
2022/11/05 00:51:20;;;;;;;27.97;18.40;;;8.00;99.90;;;;;;5095314;28;20242;-68
2022/11/05 00:53:45;;;;;;;37.23;18.33;;;8.00;99.90;;;;;;5095458;28;20177;-68
2022/11/05 00:56:11;;;;;;;28.07;17.90;;;8.00;99.90;;;;;;5095307;28;20192;-68
2022/11/05 00:58:37;;;;;;;26.77;18.97;;;7.90;99.90;;;;;;5095960;28;20208;-68
2022/11/05 01:01:03;;;;;;;23.30;16.93;;;7.90;99.90;;;;;;5095409;28;20177;-68
2022/11/05 01:03:32;;;;;;;33.03;17.63;;;7.90;99.90;;;;;;5095567;28;20248;-67
2022/11/05 01:06:08;;;;;;;34.13;19.87;;;7.90;99.90;;;;;;5095027;28;20269;-68
2022/11/05 01:08:35;;;;;;;24.63;17.03;;;7.80;99.90;;;;;;5093857;28;20255;-68
2022/11/05 01:11:08;;;;;;;24.90;15.87;;;7.80;99.90;;;;;;5095171;28;20207;-68
2022/11/05 01:13:34;;;;;;;28.03;17.97;;;7.70;99.90;;;;;;5093786;28;20185;-68
2022/11/05 01:16:05;;;;;;;24.27;17.30;;;7.70;99.90;;;;;;5093880;28;20197;-68
2022/11/05 01:18:31;;;;;;;27.90;17.27;;;7.50;99.90;;;;;;5095239;28;20215;-68
2022/11/05 01:20:56;;;;;;;29.33;17.80;;;7.50;99.90;;;;;;5094766;28;20185;-68
2022/11/05 01:23:22;;;;;;;29.03;16.77;;;7.40;99.90;;;;;;5093706;28;20173;-68
2022/11/05 01:25:48;;;;;;;23.73;15.80;;;7.30;99.90;;;;;;5094720;28;20617;-68
2022/11/05 01:28:14;;;;;;;26.07;15.40;;;7.40;99.90;;;;;;5093483;28;20184;-68
2022/11/05 01:30:39;;;;;;;28.23;15.87;;;7.30;99.90;;;;;;5095060;28;20231;-68
2022/11/05 01:33:05;;;;;;;27.27;16.13;;;7.30;99.90;;;;;;5094749;28;20165;-68
2022/11/05 01:35:31;;;;;;;23.67;16.10;;;7.20;99.90;;;;;;5093283;28;20224;-67
2022/11/05 01:37:57;;;;;;;24.30;16.40;;;7.10;99.90;;;;;;5094771;28;20203;-67
2022/11/05 01:40:23;;;;;;;27.63;16.03;;;7.00;99.90;;;;;;5094986;28;20248;-67
2022/11/05 01:42:49;;;;;;;25.27;15.23;;;7.00;99.90;;;;;;5094631;28;20219;-67
2022/11/05 01:45:25;;;;;;;27.10;15.33;;;7.00;99.90;;;;;;5094715;28;20196;-67
2022/11/05 01:47:58;;;;;;;22.83;15.20;;;7.00;99.90;;;;;;5094595;28;20622;-67
2022/11/05 01:50:35;;;;;;;21.70;15.17;;;6.90;99.90;;;;;;5094587;28;20666;-67
2022/11/05 01:53:07;;;;;;;21.63;15.53;;;6.90;99.90;;;;;;5094797;28;20162;-67
2022/11/05 01:55:38;;;;;;;27.40;16.93;;;6.80;99.90;;;;;;5094338;28;20185;-67
2022/11/05 01:58:07;;;;;;;29.00;16.93;;;6.80;99.90;;;;;;5094766;28;20650;-67
2022/11/05 02:00:34;;;;;;;30.40;17.27;;;6.90;99.90;;;;;;5093047;28;20173;-67
2022/11/05 02:03:00;;;;;;;30.60;17.50;;;6.90;99.90;;;;;;5093011;28;20263;-67
2022/11/05 02:05:26;;;;;;;27.30;18.23;;;7.00;99.90;;;;;;5093280;28;20184;-67
2022/11/05 02:07:53;;;;;;;34.77;20.47;;;7.00;99.90;;;;;;5094602;28;20274;-72
2022/11/05 02:10:20;;;;;;;31.87;18.70;;;7.00;99.90;;;;;;5099649;28;20199;-69
2022/11/05 02:12:49;;;;;;;30.43;18.27;;;6.90;99.90;;;;;;5094374;28;20185;-67
2022/11/05 02:15:23;;;;;;;37.50;19.80;;;6.90;99.90;;;;;;5094220;28;20176;-67
2022/11/05 02:18:29;;;;;;;34.83;19.27;;;6.80;99.90;;;;;;5094362;28;20282;-67
2022/11/05 02:21:27;;;;;;;31.57;20.60;;;6.80;99.90;;;;;;5093757;28;20568;-67
2022/11/05 02:24:07;;;;;;;34.87;19.27;;;6.80;99.90;;;;;;5093127;28;20195;-67
2022/11/05 02:27:05;;;;;;;32.40;20.67;;;6.80;99.90;;;;;;5093745;28;20189;-66
2022/11/05 02:29:46;;;;;;;35.27;21.00;;;6.80;99.90;;;;;;5092752;28;20631;-67
2022/11/05 02:32:31;;;;;;;32.13;21.63;;;6.80;99.90;;;;;;5093904;28;20161;-67
2022/11/05 02:35:21;;;;;;;39.27;22.20;;;6.90;99.90;;;;;;5092913;28;20693;-67
2022/11/05 02:37:55;;;;;;;41.83;21.57;;;6.90;99.90;;;;;;5095520;28;20160;-67
2022/11/05 02:40:43;;;;;;;38.67;21.77;;;6.90;99.90;;;;;;5095030;28;20161;-67
2022/11/05 02:43:34;;;;;;;36.37;21.33;;;6.90;99.90;;;;;;5093878;28;20570;-67
2022/11/05 02:46:31;;;;;;;36.37;22.47;;;6.90;99.90;;;;;;5093460;28;20300;-67
2022/11/05 02:49:11;;;;;;;34.70;21.23;;;6.90;99.90;;;;;;5093580;28;20158;-67
2022/11/05 02:51:59;;;;;;;33.87;20.90;;;6.80;99.90;;;;;;5093482;28;20209;-66
2022/11/05 02:54:25;;;;;;;33.27;20.03;;;6.80;99.90;;;;;;5093301;28;20220;-67
2022/11/05 02:56:54;;;;;;;37.23;21.63;;;6.80;99.90;;;;;;5092282;28;20224;-67
2022/11/05 02:59:20;;;;;;;38.80;21.43;;;6.70;99.90;;;;;;5093848;28;20169;-67
2022/11/05 03:01:46;;;;;;;42.03;23.73;;;6.70;99.90;;;;;;5092161;28;20188;-67
2022/11/05 03:04:15;;;;;;;38.80;22.43;;;6.70;99.90;;;;;;5092114;28;20264;-67
2022/11/05 03:07:10;;;;;;;42.57;23.87;;;6.70;99.90;;;;;;5093229;28;20276;-67
2022/11/05 03:09:57;;;;;;;35.20;21.57;;;6.60;99.90;;;;;;5092865;28;20196;-67
2022/11/05 03:12:38;;;;;;;44.83;23.37;;;6.70;99.90;;;;;;5093339;28;20285;-67
2022/11/05 03:15:37;;;;;;;38.60;23.90;;;6.70;99.90;;;;;;5093603;28;20614;-67
2022/11/05 03:18:22;;;;;;;49.20;23.03;;;6.70;99.90;;;;;;5093285;28;20207;-67
2022/11/05 03:20:57;;;;;;;42.27;24.43;;;6.70;99.90;;;;;;5093214;28;20694;-67
2022/11/05 03:23:44;;;;;;;37.90;23.60;;;6.70;99.90;;;;;;5093205;28;20171;-67
2022/11/05 03:26:16;;;;;;;40.90;23.60;;;6.80;99.90;;;;;;5093179;28;20196;-67
2022/11/05 03:28:47;;;;;;;36.57;22.97;;;6.80;99.90;;;;;;5093143;28;20165;-67
2022/11/05 03:31:15;;;;;;;39.43;21.40;;;6.80;99.90;;;;;;5093647;28;20188;-67
2022/11/05 03:33:42;;;;;;;37.03;21.83;;;6.80;99.90;;;;;;5093400;28;20158;-67
2022/11/05 03:36:15;;;;;;;37.47;22.60;;;6.80;99.90;;;;;;5092899;28;20189;-67
2022/11/05 03:38:45;;;;;;;39.03;23.57;;;6.80;99.90;;;;;;5093537;28;20153;-67
2022/11/05 03:41:14;;;;;;;45.47;24.47;;;6.70;99.90;;;;;;5096911;28;20169;-67
2022/11/05 03:43:47;;;;;;;43.20;23.63;;;6.70;99.90;;;;;;5096823;28;20285;-67
2022/11/05 03:46:23;;;;;;;40.07;22.77;;;6.70;99.90;;;;;;5096836;28;20319;-67
2022/11/05 03:48:54;;;;;;;48.23;24.53;;;6.70;99.90;;;;;;5095542;28;20173;-67
2022/11/05 03:51:35;;;;;;;40.70;22.37;;;6.70;99.90;;;;;;5095163;28;20246;-67
2022/11/05 03:54:03;;;;;;;42.77;25.10;;;6.70;99.90;;;;;;5095449;28;20169;-67
2022/11/05 03:56:48;;;;;;;44.23;25.83;;;6.70;99.90;;;;;;5096706;28;20642;-67
2022/11/05 03:59:14;;;;;;;44.17;24.10;;;6.70;99.90;;;;;;5096787;28;20157;-67
2022/11/05 04:01:41;;;;;;;44.40;24.67;;;6.60;99.90;;;;;;5095281;28;20173;-67
2022/11/05 04:04:08;;;;;;;50.20;25.00;;;6.60;99.90;;;;;;5096592;28;20177;-67
2022/11/05 04:14:46;;;;;;;47.00;24.73;;;6.50;99.90;;;;;;5096273;28;20184;-67
2022/11/05 04:17:12;;;;;;;42.73;23.63;;;6.50;99.90;;;;;;5094854;28;20661;-67
2022/11/05 04:25:10;;;;;;;45.97;24.80;;;6.50;99.90;;;;;;5096244;28;20556;-66
2022/11/05 04:27:36;;;;;;;40.43;25.00;;;6.50;99.90;;;;;;5096309;28;20605;-67
2022/11/05 04:30:19;;;;;;;40.47;22.73;;;6.60;99.90;;;;;;5095995;28;20280;-67
2022/11/05 04:33:08;;;;;;;43.63;23.27;;;6.50;99.90;;;;;;5096380;28;20154;-67
2022/11/05 04:35:42;;;;;;;44.10;25.00;;;6.50;99.90;;;;;;5094439;28;20570;-67
2022/11/05 04:38:13;;;;;;;40.60;22.33;;;6.50;99.90;;;;;;5096064;28;20244;-67
2022/11/05 04:40:40;;;;;;;40.77;22.47;;;6.40;99.90;;;;;;5095819;28;20802;-67
2022/11/05 04:43:09;;;;;;;38.73;22.97;;;6.40;99.90;;;;;;5095709;28;20185;-67
2022/11/05 04:45:36;;;;;;;41.77;22.67;;;6.40;99.90;;;;;;5095551;28;20212;-67
2022/11/05 04:48:03;;;;;;;45.37;22.60;;;6.40;99.90;;;;;;5095655;28;20247;-68
2022/11/05 04:50:29;;;;;;;38.13;22.73;;;6.30;99.90;;;;;;5095340;28;20236;-68
2022/11/05 04:52:54;;;;;;;39.37;22.73;;;6.40;99.90;;;;;;5094247;28;20213;-68
2022/11/05 04:55:20;;;;;;;35.40;20.77;;;6.40;99.90;;;;;;5095418;28;20169;-67
2022/11/05 04:57:48;;;;;;;46.93;23.60;;;6.40;99.90;;;;;;5095433;28;20203;-68
2022/11/05 05:00:14;;;;;;;53.47;24.70;;;6.40;99.90;;;;;;5094046;28;20226;-67
2022/11/05 05:02:40;;;;;;;43.10;22.33;;;6.30;99.90;;;;;;5095257;28;20181;-67
2022/11/05 05:05:06;;;;;;;46.33;24.57;;;6.30;99.90;;;;;;5095206;28;20181;-67
2022/11/05 05:07:35;;;;;;;48.37;24.93;;;6.30;99.90;;;;;;5095339;28;20197;-68
2022/11/05 05:10:01;;;;;;;53.67;26.57;;;6.30;99.90;;;;;;5095008;28;20220;-67
2022/11/05 05:12:27;;;;;;;45.97;25.33;;;6.30;99.90;;;;;;5095274;28;20184;-67
2022/11/05 05:14:52;;;;;;;50.33;26.30;;;6.30;99.90;;;;;;5095124;28;20222;-67
2022/11/05 05:17:18;;;;;;;59.13;27.33;;;6.30;99.90;;;;;;5095017;28;20189;-68
2022/11/05 05:22:28;;;;;;;50.43;26.07;;;6.30;99.90;;;;;;5094948;28;20218;-68
2022/11/05 05:24:55;;;;;;;51.30;25.60;;;6.30;99.90;;;;;;5094883;28;20181;-68
2022/11/05 05:27:22;;;;;;;50.73;26.60;;;6.40;99.90;;;;;;5094783;28;20189;-68
2022/11/05 05:29:49;;;;;;;51.27;27.07;;;6.30;99.90;;;;;;5094725;28;20176;-68
2022/11/05 05:32:14;;;;;;;46.93;24.60;;;6.30;99.90;;;;;;5095052;28;20182;-64
2022/11/05 05:34:40;;;;;;;50.00;25.10;;;6.20;99.90;;;;;;5094731;28;20177;-64
2022/11/05 05:37:06;;;;;;;46.27;23.47;;;6.20;99.90;;;;;;5094968;28;20208;-67
2022/11/05 05:39:32;;;;;;;48.47;25.33;;;6.20;99.90;;;;;;5095217;28;20181;-68
2022/11/05 05:41:57;;;;;;;42.47;23.30;;;6.10;99.90;;;;;;5095112;28;20641;-68
2022/11/05 05:44:23;;;;;;;47.00;25.37;;;6.10;99.90;;;;;;5094437;28;20185;-68
2022/11/05 05:46:49;;;;;;;47.30;23.93;;;6.10;99.90;;;;;;5093256;28;20209;-68
2022/11/05 05:49:14;;;;;;;47.87;24.63;;;6.10;99.90;;;;;;5094413;28;20668;-68
2022/11/05 05:51:40;;;;;;;50.30;25.10;;;6.10;99.90;;;;;;5094152;28;20657;-68
2022/11/05 05:54:06;;;;;;;55.57;26.30;;;6.10;99.90;;;;;;5093066;28;20231;-68
2022/11/05 05:56:32;;;;;;;56.17;26.77;;;6.10;99.90;;;;;;5094496;28;20193;-68
2022/11/05 05:58:58;;;;;;;57.13;26.53;;;6.10;99.90;;;;;;5094215;28;20177;-67
2022/11/05 06:01:23;;;;;;;54.33;25.87;;;6.00;99.90;;;;;;5093694;28;20560;-68
2022/11/05 06:03:49;;;;;;;60.67;26.70;;;6.00;99.90;;;;;;5094206;28;20193;-67
2022/11/05 06:06:19;;;;;;;53.63;25.33;;;6.00;99.90;;;;;;5094070;28;20208;-68
2022/11/05 06:08:46;;;;;;;56.37;26.53;;;6.00;99.90;;;;;;5094344;28;20166;-68
2022/11/05 06:11:12;;;;;;;56.77;26.40;;;6.00;99.90;;;;;;5093950;28;20193;-68
2022/11/05 06:13:38;;;;;;;58.27;26.47;;;5.90;99.90;;;;;;5094243;28;20517;-68
2022/11/05 06:16:06;;;;;;;58.43;29.17;;;5.90;99.90;;;;;;5092612;28;20299;-67
2022/11/05 06:18:33;;;;;;;58.63;27.37;;;5.90;99.90;;;;;;5092549;28;20549;-67
2022/11/05 06:21:25;;;;;;;52.47;26.07;;;5.90;99.90;;;;;;5093677;28;20698;-68
2022/11/05 06:23:51;;;;;;;54.60;26.00;;;5.90;99.90;;;;;;5093516;28;20653;-68
2022/11/05 06:26:18;;;;;;;58.73;27.30;;;5.90;99.90;;;;;;5093733;28;20206;-68
2022/11/05 06:28:44;;;;;;;58.97;27.10;;;5.90;99.90;;;;;;5092474;28;20212;-67
2022/11/05 06:31:11;;;;;;;55.80;24.73;;;5.90;99.90;;;;;;5093674;28;20196;-68
2022/11/05 06:33:38;;;;;;;55.57;26.17;;;5.90;99.90;;;;;;5093655;28;20178;-68
2022/11/05 06:36:05;;;;;;;53.03;25.57;;;5.90;99.90;;;;;;5093709;28;20215;-68
2022/11/05 06:38:32;;;;;;;50.37;25.43;;;5.90;99.90;;;;;;5092304;28;20176;-68
2022/11/05 06:40:59;;;;;;;54.43;25.47;;;5.90;99.90;;;;;;5093497;28;20169;-68
2022/11/05 06:43:26;;;;;;;52.87;25.27;;;5.90;99.90;;;;;;5093505;28;20269;-68
2022/11/05 06:45:52;;;;;;;52.07;26.17;;;5.90;99.90;;;;;;5093290;28;20296;-67
2022/11/05 06:48:17;;;;;;;52.17;27.07;;;5.90;99.90;;;;;;5093377;28;20205;-68
2022/11/05 06:50:44;;;;;;;57.00;26.30;;;5.80;99.90;;;;;;5093226;28;20661;-67
2022/11/05 06:53:10;;;;;;;51.00;25.57;;;5.80;99.90;;;;;;5093672;28;20169;-68
2022/11/05 06:55:36;;;;;;;58.43;26.97;;;5.80;99.90;;;;;;5093802;28;20213;-68
2022/11/05 06:58:01;;;;;;;60.93;26.70;;;5.90;99.90;;;;;;5093148;28;20212;-68
2022/11/05 07:00:27;;;;;;;59.03;26.53;;;5.90;99.90;;;;;;5093214;28;20603;-68
2022/11/05 07:02:54;;;;;;;56.43;26.70;;;5.90;99.90;;;;;;5093858;28;20165;-68
2022/11/05 07:05:22;;;;;;;57.77;26.23;;;5.80;99.90;;;;;;5091829;28;20181;-68
2022/11/05 07:07:47;;;;;;;52.07;28.10;;;5.80;99.90;;;;;;5093280;28;20181;-68
2022/11/05 07:10:16;;;;;;;52.80;26.87;;;5.80;99.90;;;;;;5093084;28;20250;-68
2022/11/05 07:12:42;;;;;;;60.57;28.53;;;5.80;99.90;;;;;;5093598;28;20217;-68
2022/11/05 07:15:09;;;;;;;58.47;27.20;;;5.80;99.90;;;;;;5097202;28;20169;-68
2022/11/05 07:17:35;;;;;;;58.03;27.87;;;5.90;99.90;;;;;;5095766;28;20285;-68
2022/11/05 07:20:01;;;;;;;56.03;26.53;;;5.90;99.90;;;;;;5096997;28;20202;-68
2022/11/05 07:22:26;;;;;;;54.33;26.37;;;6.00;99.90;;;;;;5097146;28;20181;-68
2022/11/05 07:24:52;;;;;;;52.20;26.70;;;6.10;99.90;;;;;;5097622;28;20516;-68
2022/11/05 07:27:18;;;;;;;56.37;26.97;;;6.10;99.90;;;;;;5096892;28;20197;-68
2022/11/05 07:29:43;;;;;;;54.10;26.97;;;6.10;99.90;;;;;;5095640;28;20646;-68
2022/11/05 07:32:09;;;;;;;59.10;27.70;;;6.10;99.90;;;;;;5095582;28;20616;-68
2022/11/05 07:34:35;;;;;;;54.10;26.10;;;6.10;99.90;;;;;;5095618;28;20181;-70
2022/11/05 07:37:01;;;;;;;47.10;24.57;;;6.20;99.90;;;;;;5095586;28;20197;-68
2022/11/05 07:39:26;;;;;;;49.63;24.63;;;6.20;99.90;;;;;;5097393;28;20556;-68
2022/11/05 07:41:56;;;;;;;51.67;25.90;;;6.30;99.90;;;;;;5097261;28;20219;-68
2022/11/05 07:44:23;;;;;;;50.67;25.20;;;6.30;99.90;;;;;;5095497;28;20206;-68
2022/11/05 07:46:49;;;;;;;53.67;26.40;;;6.30;99.90;;;;;;5096801;28;20208;-68
2022/11/05 07:49:15;;;;;;;54.07;25.27;;;6.40;99.90;;;;;;5095500;28;20189;-68
2022/11/05 07:51:41;;;;;;;48.00;26.07;;;6.40;99.90;;;;;;5096525;28;20204;-68
2022/11/05 07:54:07;;;;;;;52.57;25.57;;;6.50;99.90;;;;;;5095399;28;20174;-68
2022/11/05 07:56:32;;;;;;;49.87;25.87;;;6.50;99.90;;;;;;5096863;28;20278;-68
2022/11/05 07:58:58;;;;;;;58.83;28.83;;;6.60;99.90;;;;;;5097630;28;20177;-68
2022/11/05 08:01:24;;;;;;;51.27;26.00;;;6.60;99.90;;;;;;5097073;28;20206;-68
2022/11/05 08:03:50;;;;;;;58.07;25.73;;;6.70;99.90;;;;;;5097127;28;20183;-68
2022/11/05 08:06:15;;;;;;;48.17;25.37;;;6.70;99.90;;;;;;5096384;28;20199;-68
2022/11/05 08:08:41;;;;;;;55.53;26.13;;;6.70;99.90;;;;;;5096261;28;20177;-68
2022/11/05 08:11:08;;;;;;;49.63;25.93;;;6.80;99.90;;;;;;5096894;28;20225;-68
2022/11/05 08:13:34;;;;;;;50.80;25.13;;;6.80;99.90;;;;;;5096826;28;20642;-68
2022/11/05 08:16:00;;;;;;;54.17;26.00;;;6.90;99.90;;;;;;5096749;28;20201;-68
2022/11/05 08:18:30;;;;;;;46.00;25.57;;;7.00;99.90;;;;;;5096024;28;20615;-68
2022/11/05 08:21:04;;;;;;;49.30;28.37;;;7.10;99.90;;;;;;5097384;28;20223;-68
2022/11/05 08:23:31;;;;;;;42.70;26.60;;;7.10;99.90;;;;;;5096475;28;20192;-73
2022/11/05 08:25:57;;;;;;;47.70;25.63;;;7.20;99.90;;;;;;5095308;28;20246;-68
2022/11/05 08:28:24;;;;;;;50.37;25.23;;;7.20;99.90;;;;;;5094836;28;20177;-68
2022/11/05 08:30:52;;;;;;;47.90;25.93;;;7.30;99.90;;;;;;5096061;28;20193;-73
2022/11/05 08:33:22;;;;;;;46.90;25.10;;;7.40;99.90;;;;;;5094825;28;20185;-68
2022/11/05 08:35:49;;;;;;;45.40;24.57;;;7.50;99.90;;;;;;5096306;28;20197;-65
2022/11/05 08:38:17;;;;;;;42.90;23.80;;;7.60;99.90;;;;;;5096427;28;20176;-64
2022/11/05 08:40:44;;;;;;;47.57;24.83;;;7.70;99.90;;;;;;5096067;28;20181;-64
2022/11/05 08:43:12;;;;;;;48.70;25.17;;;7.70;99.90;;;;;;5095795;28;20181;-64
2022/11/05 08:45:38;;;;;;;50.33;24.90;;;7.80;99.90;;;;;;5095912;28;20209;-65
2022/11/05 08:48:13;;;;;;;45.63;23.73;;;7.90;99.90;;;;;;5094379;28;20184;-64
2022/11/05 08:50:40;;;;;;;47.43;24.70;;;8.00;99.90;;;;;;5094111;28;20192;-64
2022/11/05 08:53:06;;;;;;;37.00;22.43;;;8.10;99.90;;;;;;5095450;28;20650;-64
2022/11/05 08:55:32;;;;;;;37.50;22.67;;;8.20;99.90;;;;;;5095374;28;20268;-64
2022/11/05 08:58:04;;;;;;;38.83;21.77;;;8.30;99.90;;;;;;5095748;28;20169;-64
2022/11/05 09:00:32;;;;;;;36.50;20.03;;;8.40;99.90;;;;;;5094140;28;20196;-64
2022/11/05 09:02:59;;;;;;;32.80;20.20;;;8.50;99.90;;;;;;5094051;28;20173;-64
2022/11/05 09:05:26;;;;;;;35.03;20.40;;;8.60;99.90;;;;;;5095025;28;20196;-64
2022/11/05 09:07:51;;;;;;;31.17;19.33;;;8.80;99.90;;;;;;5095250;28;20234;-64
2022/11/05 09:10:17;;;;;;;29.20;17.97;;;8.80;99.90;;;;;;5095184;28;20197;-64
2022/11/05 09:12:43;;;;;;;30.77;17.73;;;8.90;99.90;;;;;;5095054;28;20256;-63
2022/11/05 09:15:09;;;;;;;33.73;19.20;;;9.00;99.90;;;;;;5095113;28;20541;-63
2022/11/05 09:17:35;;;;;;;30.87;18.37;;;9.10;99.90;;;;;;5094929;28;20565;-63
2022/11/05 09:20:02;;;;;;;31.47;18.27;;;9.00;99.90;;;;;;5093843;28;20169;-63
2022/11/05 09:22:28;;;;;;;30.97;17.40;;;9.00;99.90;;;;;;5094924;28;20174;-63
2022/11/05 09:24:54;;;;;;;28.40;19.07;;;9.20;99.90;;;;;;5093705;28;20851;-64
2022/11/05 09:27:20;;;;;;;26.90;17.20;;;9.20;99.90;;;;;;5094767;28;20220;-63
2022/11/05 09:29:46;;;;;;;27.43;16.07;;;9.30;99.90;;;;;;5095393;28;20165;-63
2022/11/05 09:32:11;;;;;;;33.13;18.60;;;9.30;99.90;;;;;;5093473;28;20212;-63
2022/11/05 09:34:37;;;;;;;26.93;16.10;;;9.40;99.90;;;;;;5094969;28;20173;-64
2022/11/05 09:37:03;;;;;;;26.60;15.57;;;9.50;99.90;;;;;;5092267;28;20242;-63
2022/11/05 09:39:29;;;;;;;28.70;16.60;;;9.60;99.90;;;;;;5094968;28;20185;-63
2022/11/05 09:42:00;;;;;;;24.50;16.30;;;9.60;99.90;;;;;;5093566;28;20220;-63
2022/11/05 09:44:47;;;;;;;24.43;16.30;;;9.60;99.90;;;;;;5094537;28;20165;-63
2022/11/05 09:47:39;;;;;;;27.63;16.80;;;9.60;99.90;;;;;;5094890;28;20724;-63
2022/11/05 09:50:18;;;;;;;22.83;15.00;;;9.70;99.90;;;;;;5094357;28;20169;-68
2022/11/05 09:52:44;;;;;;;28.27;16.20;;;9.70;99.90;;;;;;5093194;28;20169;-63
2022/11/05 09:55:20;;;;;;;24.83;13.93;;;9.80;99.90;;;;;;5094330;28;20169;-63
2022/11/05 09:57:58;;;;;;;23.27;14.93;;;9.80;99.90;;;;;;5094425;28;20236;-63
2022/11/05 10:00:24;;;;;;;23.53;14.70;;;9.70;99.90;;;;;;5094521;28;20161;-64
2022/11/05 10:03:10;;;;;;;23.80;14.37;;;9.80;99.90;;;;;;5094247;28;20695;-64
2022/11/05 10:05:38;;;;;;;30.20;17.13;;;10.00;99.90;;;;;;5094025;28;20239;-64
2022/11/05 10:08:12;;;;;;;24.70;15.70;;;10.10;99.90;;;;;;5094222;28;20577;-64
2022/11/05 10:10:48;;;;;;;26.33;15.33;;;10.20;99.90;;;;;;5094012;28;20212;-63
2022/11/05 10:13:36;;;;;;;22.07;14.73;;;10.40;99.90;;;;;;5093956;28;20177;-63
2022/11/05 10:16:10;;;;;;;19.73;12.63;;;10.50;99.90;;;;;;5093997;28;20673;-63
2022/11/05 10:18:40;;;;;;;18.53;12.07;;;10.60;99.90;;;;;;5094328;28;20159;-63
2022/11/05 10:21:06;;;;;;;18.27;12.23;;;10.60;99.90;;;;;;5092477;28;20177;-64
2022/11/05 10:23:32;;;;;;;16.57;12.07;;;10.60;99.90;;;;;;5093870;28;20177;-64
2022/11/05 10:26:12;;;;;;;18.83;11.80;;;10.50;99.90;;;;;;5094213;28;20197;-64
2022/11/05 10:28:38;;;;;;;24.37;12.53;;;10.40;99.90;;;;;;5093981;28;20187;-64
2022/11/05 10:31:08;;;;;;;16.80;10.70;;;10.40;99.90;;;;;;5094263;28;20212;-63
2022/11/05 10:33:37;;;;;;;18.17;11.23;;;10.30;99.90;;;;;;5093972;28;20169;-63
2022/11/05 10:36:08;;;;;;;15.90;10.47;;;10.30;99.90;;;;;;5093685;28;20189;-63
2022/11/05 10:38:34;;;;;;;16.77;10.97;;;10.20;99.90;;;;;;5093681;28;20184;-63
2022/11/05 10:41:12;;;;;;;16.83;10.43;;;10.30;99.90;;;;;;5093548;28;20177;-64
2022/11/05 10:43:56;;;;;;;18.77;11.57;;;10.30;99.90;;;;;;5092315;28;20185;-64
2022/11/05 10:46:27;;;;;;;19.40;11.43;;;10.30;99.90;;;;;;5093489;28;20303;-64
2022/11/05 10:49:13;;;;;;;15.77;11.30;;;10.30;99.90;;;;;;5093211;28;20164;-64
2022/11/05 10:51:39;;;;;;;24.77;9.90;;;10.30;99.90;;;;;;5093422;28;20220;-63
2022/11/05 10:54:15;;;;;;;19.60;10.77;;;10.50;99.90;;;;;;5094184;28;20586;-63
2022/11/05 10:56:41;;;;;;;18.30;10.40;;;10.70;99.90;;;;;;5093358;28;20197;-64
2022/11/05 10:59:29;;;;;;;15.63;9.43;;;10.90;99.90;;;;;;5093646;28;20161;-64
2022/11/05 11:02:17;;;;;;;17.50;10.00;;;11.10;99.90;;;;;;5093421;28;20575;-63
2022/11/05 11:04:54;;;;;;;14.10;9.27;;;11.30;99.90;;;;;;5092064;28;20200;-63
2022/11/05 11:07:23;;;;;;;18.63;10.07;;;11.50;99.90;;;;;;5093194;28;20199;-63
2022/11/05 11:09:50;;;;;;;18.03;9.43;;;11.70;99.90;;;;;;5093846;28;20508;-63
2022/11/05 11:12:29;;;;;;;15.37;8.93;;;12.00;99.90;;;;;;5093402;28;20208;-64
2022/11/05 11:15:02;;;;;;;14.50;9.20;;;12.20;99.90;;;;;;5093574;28;20157;-63
2022/11/05 11:17:30;;;;;;;17.67;8.70;;;12.40;99.90;;;;;;5093061;28;20272;-63
2022/11/05 11:20:22;;;;;;;13.68;8.35;;;12.50;99.90;;;;;;5093101;28;20532;-63
2022/11/05 11:23:03;;;;;;;15.93;8.93;;;12.90;99.90;;;;;;5093476;28;20168;-63
2022/11/05 11:25:35;;;;;;;14.95;9.82;;;12.70;99.90;;;;;;5093136;28;20207;-63
2022/11/05 11:28:04;;;;;;;12.65;8.32;;;12.40;99.90;;;;;;5093197;28;20197;-63
2022/11/05 11:30:30;;;;;;;14.82;8.85;;;11.90;99.90;;;;;;5093247;28;20197;-63
2022/11/05 11:33:04;;;;;;;16.25;8.75;;;11.70;99.90;;;;;;5093270;28;20601;-69
2022/11/05 11:35:31;;;;;;;15.32;8.98;;;11.40;99.90;;;;;;5093452;28;20176;-69
2022/11/05 11:37:59;;;;;;;12.87;8.50;;;11.30;99.90;;;;;;5092956;28;20252;-69
2022/11/05 11:40:36;;;;;;;12.77;8.13;;;11.00;99.90;;;;;;5093545;28;20189;-69
2022/11/05 11:43:10;;;;;;;13.47;7.90;;;10.90;99.90;;;;;;5091727;28;20191;-69
2022/11/05 11:45:49;;;;;;;12.10;7.97;;;10.80;99.90;;;;;;5093082;28;20208;-69
2022/11/05 11:48:18;;;;;;;12.53;8.13;;;10.80;99.90;;;;;;5092056;28;20212;-71
2022/11/05 11:50:46;;;;;;;13.87;8.33;;;10.80;99.90;;;;;;5094122;28;20225;-70
2022/11/05 11:53:20;;;;;;;14.73;8.20;;;10.90;99.90;;;;;;5094330;28;20582;-70
2022/11/05 11:55:58;;;;;;;12.20;8.30;;;10.80;99.90;;;;;;5091764;28;20649;-70
2022/11/05 11:58:34;;;;;;;9.23;7.60;;;10.90;99.90;;;;;;5093405;28;20161;-70
2022/11/05 12:01:23;;;;;;;13.23;8.07;;;10.80;99.90;;;;;;5094082;28;20274;-68
2022/11/05 12:03:52;;;;;;;11.10;8.03;;;10.80;99.90;;;;;;5096518;28;20192;-68
2022/11/05 12:06:28;;;;;;;11.90;7.40;;;10.90;99.90;;;;;;5096254;28;20204;-68
2022/11/05 12:08:56;;;;;;;12.10;7.80;;;11.00;99.90;;;;;;5095285;28;20276;-68
2022/11/05 12:11:45;;;;;;;13.23;7.17;;;11.00;99.90;;;;;;5096318;28;20207;-68
2022/11/05 12:14:49;;;;;;;10.77;6.70;;;11.10;99.90;;;;;;5096371;28;20181;-68
2022/11/05 12:17:36;;;;;;;11.87;7.50;;;11.00;99.90;;;;;;5095731;28;20208;-68
2022/11/05 12:20:31;;;;;;;13.83;7.47;;;11.20;99.90;;;;;;5096662;28;20244;-68
2022/11/05 12:23:15;;;;;;;15.17;7.53;;;11.50;99.90;;;;;;5095036;28;20567;-69
2022/11/05 12:26:02;;;;;;;10.57;7.00;;;11.50;99.90;;;;;;5094932;28;20295;-69
2022/11/05 12:28:43;;;;;;;10.00;7.03;;;11.30;99.90;;;;;;5094995;28;20225;-70
2022/11/05 12:31:36;;;;;;;12.73;7.50;;;11.40;99.90;;;;;;5095979;28;20669;-69
2022/11/05 12:34:20;;;;;;;16.23;7.10;;;11.40;99.90;;;;;;5096044;28;20638;-69
2022/11/05 12:37:31;;;;;;;11.27;7.23;;;11.60;99.90;;;;;;5095749;28;20193;-69
2022/11/05 12:40:14;;;;;;;11.63;6.90;;;11.60;99.90;;;;;;5095194;28;20189;-69
2022/11/05 12:42:55;;;;;;;11.33;6.80;;;11.50;99.90;;;;;;5095682;28;20181;-69
2022/11/05 12:45:46;;;;;;;9.83;6.80;;;11.50;99.90;;;;;;5094113;28;20269;-69
2022/11/05 12:48:29;;;;;;;10.53;7.27;;;11.60;99.90;;;;;;5095690;28;20161;-69
2022/11/05 12:51:21;;;;;;;11.53;7.00;;;11.50;99.90;;;;;;5095445;28;20197;-69
2022/11/05 12:53:58;;;;;;;7.80;6.90;;;11.50;99.90;;;;;;5096478;28;20653;-69
2022/11/05 12:56:46;;;;;;;14.97;6.53;;;11.40;99.90;;;;;;5096137;28;20188;-71
2022/11/05 12:59:18;;;;;;;9.13;6.27;;;11.30;99.90;;;;;;5095643;28;20166;-69
2022/11/05 13:01:53;;;;;;;9.80;7.20;;;11.20;99.90;;;;;;5094308;28;20184;-69
2022/11/05 13:04:59;;;;;;;10.50;7.20;;;11.10;99.90;;;;;;5095819;28;20248;-69
2022/11/05 13:07:38;;;;;;;14.67;7.30;;;11.00;99.90;;;;;;5095200;28;20319;-69
2022/11/05 13:10:24;;;;;;;12.13;7.23;;;10.90;99.90;;;;;;5095340;28;20211;-69
2022/11/05 13:13:03;;;;;;;8.47;6.20;;;10.90;99.90;;;;;;5093820;28;20204;-69
2022/11/05 13:15:36;;;;;;;10.27;7.10;;;10.90;99.90;;;;;;5095195;28;20521;-69
2022/11/05 13:18:09;;;;;;;8.17;6.73;;;10.80;99.90;;;;;;5095590;28;20666;-69
2022/11/05 13:20:41;;;;;;;15.67;6.93;;;10.80;99.90;;;;;;5095465;28;20226;-69
2022/11/05 13:23:23;;;;;;;10.83;6.60;;;10.80;99.90;;;;;;5096033;28;20635;-70
2022/11/05 13:25:55;;;;;;;10.07;7.20;;;10.70;99.90;;;;;;5095593;28;20289;-69
2022/11/05 13:28:45;;;;;;;14.03;6.80;;;10.70;99.90;;;;;;5093900;28;20641;-69
2022/11/05 13:31:15;;;;;;;9.67;5.93;;;10.80;99.90;;;;;;5095151;28;20642;-69
2022/11/05 13:33:44;;;;;;;10.97;7.00;;;10.80;99.90;;;;;;5095252;28;20165;-67
2022/11/05 13:39:15;;;;;;;10.33;6.67;;;10.80;99.90;;;;;;5095116;28;20168;-68
2022/11/05 13:41:47;;;;;;;11.87;6.93;;;10.80;99.90;;;;;;5095393;28;20185;-67